sensor_id;sensor_type;location;lat;lon;timestamp;P1;durP1;ratioP1;P2;durP2;ratioP2
49131;SDS011;35149;51.196;6.204;2023-03-05T00:01:44;5.32;;;1.20;;
49131;SDS011;35149;51.196;6.204;2023-03-05T00:04:13;3.85;;;1.42;;
49131;SDS011;35149;51.196;6.204;2023-03-05T00:06:43;6.60;;;1.85;;
49131;SDS011;35149;51.196;6.204;2023-03-05T00:09:12;6.05;;;1.65;;
49131;SDS011;35149;51.196;6.204;2023-03-05T00:11:45;4.88;;;1.38;;
49131;SDS011;35149;51.196;6.204;2023-03-05T00:14:15;5.82;;;2.03;;
49131;SDS011;35149;51.196;6.204;2023-03-05T00:16:44;5.05;;;2.08;;
49131;SDS011;35149;51.196;6.204;2023-03-05T00:19:11;6.22;;;1.85;;
49131;SDS011;35149;51.196;6.204;2023-03-05T00:21:41;4.82;;;2.05;;
49131;SDS011;35149;51.196;6.204;2023-03-05T00:26:42;4.35;;;1.95;;
49131;SDS011;35149;51.196;6.204;2023-03-05T00:29:14;5.57;;;1.92;;
49131;SDS011;35149;51.196;6.204;2023-03-05T00:31:43;8.98;;;2.05;;
49131;SDS011;35149;51.196;6.204;2023-03-05T00:34:11;8.75;;;2.53;;
49131;SDS011;35149;51.196;6.204;2023-03-05T00:36:46;5.80;;;2.17;;
49131;SDS011;35149;51.196;6.204;2023-03-05T00:39:15;5.88;;;2.17;;
49131;SDS011;35149;51.196;6.204;2023-03-05T00:41:42;5.72;;;1.90;;
49131;SDS011;35149;51.196;6.204;2023-03-05T00:44:17;5.90;;;2.05;;
49131;SDS011;35149;51.196;6.204;2023-03-05T00:46:46;6.70;;;2.17;;
49131;SDS011;35149;51.196;6.204;2023-03-05T00:49:25;5.45;;;1.77;;
49131;SDS011;35149;51.196;6.204;2023-03-05T00:52:03;7.75;;;2.10;;
49131;SDS011;35149;51.196;6.204;2023-03-05T00:54:30;12.25;;;2.50;;
49131;SDS011;35149;51.196;6.204;2023-03-05T00:56:59;6.95;;;1.92;;
49131;SDS011;35149;51.196;6.204;2023-03-05T00:59:35;5.32;;;1.77;;
49131;SDS011;35149;51.196;6.204;2023-03-05T01:02:05;8.23;;;1.88;;
49131;SDS011;35149;51.196;6.204;2023-03-05T01:04:33;3.00;;;1.20;;
49131;SDS011;35149;51.196;6.204;2023-03-05T01:07:00;6.95;;;1.65;;
49131;SDS011;35149;51.196;6.204;2023-03-05T01:09:33;4.43;;;1.65;;
49131;SDS011;35149;51.196;6.204;2023-03-05T01:12:00;7.85;;;1.85;;
49131;SDS011;35149;51.196;6.204;2023-03-05T01:14:28;5.53;;;1.38;;
49131;SDS011;35149;51.196;6.204;2023-03-05T01:16:59;4.93;;;1.73;;
49131;SDS011;35149;51.196;6.204;2023-03-05T01:19:35;6.70;;;1.80;;
49131;SDS011;35149;51.196;6.204;2023-03-05T01:22:02;5.78;;;1.90;;
49131;SDS011;35149;51.196;6.204;2023-03-05T01:24:31;6.00;;;1.67;;
49131;SDS011;35149;51.196;6.204;2023-03-05T01:26:58;7.45;;;1.80;;
49131;SDS011;35149;51.196;6.204;2023-03-05T01:29:27;5.70;;;2.00;;
49131;SDS011;35149;51.196;6.204;2023-03-05T01:31:53;3.03;;;1.38;;
49131;SDS011;35149;51.196;6.204;2023-03-05T01:34:20;3.45;;;1.60;;
49131;SDS011;35149;51.196;6.204;2023-03-05T01:36:49;4.50;;;1.88;;
49131;SDS011;35149;51.196;6.204;2023-03-05T01:39:21;5.57;;;1.90;;
49131;SDS011;35149;51.196;6.204;2023-03-05T01:41:49;2.92;;;1.50;;
49131;SDS011;35149;51.196;6.204;2023-03-05T01:44:22;8.55;;;1.55;;
49131;SDS011;35149;51.196;6.204;2023-03-05T01:46:59;8.98;;;2.20;;
49131;SDS011;35149;51.196;6.204;2023-03-05T01:49:31;3.53;;;1.55;;
49131;SDS011;35149;51.196;6.204;2023-03-05T01:52:06;3.88;;;1.50;;
49131;SDS011;35149;51.196;6.204;2023-03-05T01:54:43;5.60;;;2.30;;
49131;SDS011;35149;51.196;6.204;2023-03-05T01:57:16;4.85;;;1.77;;
49131;SDS011;35149;51.196;6.204;2023-03-05T02:00:00;3.45;;;1.75;;
49131;SDS011;35149;51.196;6.204;2023-03-05T02:02:43;3.28;;;1.77;;
49131;SDS011;35149;51.196;6.204;2023-03-05T02:07:53;5.60;;;1.70;;
49131;SDS011;35149;51.196;6.204;2023-03-05T02:10:39;8.02;;;1.85;;
49131;SDS011;35149;51.196;6.204;2023-03-05T02:13:17;3.90;;;1.60;;
49131;SDS011;35149;51.196;6.204;2023-03-05T02:15:51;9.82;;;1.70;;
49131;SDS011;35149;51.196;6.204;2023-03-05T02:18:23;4.50;;;1.80;;
49131;SDS011;35149;51.196;6.204;2023-03-05T02:23:27;8.30;;;1.85;;
49131;SDS011;35149;51.196;6.204;2023-03-05T02:26:04;3.40;;;1.65;;
49131;SDS011;35149;51.196;6.204;2023-03-05T02:28:37;5.93;;;2.10;;
49131;SDS011;35149;51.196;6.204;2023-03-05T02:31:17;6.45;;;1.80;;
49131;SDS011;35149;51.196;6.204;2023-03-05T02:33:46;6.38;;;1.92;;
49131;SDS011;35149;51.196;6.204;2023-03-05T02:36:14;4.75;;;1.75;;
49131;SDS011;35149;51.196;6.204;2023-03-05T02:38:43;5.40;;;2.17;;
49131;SDS011;35149;51.196;6.204;2023-03-05T02:41:10;7.90;;;2.20;;
49131;SDS011;35149;51.196;6.204;2023-03-05T02:43:43;4.82;;;1.58;;
49131;SDS011;35149;51.196;6.204;2023-03-05T02:46:15;8.68;;;2.55;;
49131;SDS011;35149;51.196;6.204;2023-03-05T02:48:45;4.82;;;1.80;;
49131;SDS011;35149;51.196;6.204;2023-03-05T02:51:15;7.00;;;1.77;;
49131;SDS011;35149;51.196;6.204;2023-03-05T02:53:43;5.15;;;2.63;;
49131;SDS011;35149;51.196;6.204;2023-03-05T02:56:12;7.95;;;1.80;;
49131;SDS011;35149;51.196;6.204;2023-03-05T02:58:39;5.07;;;2.25;;
49131;SDS011;35149;51.196;6.204;2023-03-05T03:01:09;4.68;;;1.77;;
49131;SDS011;35149;51.196;6.204;2023-03-05T03:03:36;5.13;;;2.25;;
49131;SDS011;35149;51.196;6.204;2023-03-05T03:06:08;7.00;;;2.00;;
49131;SDS011;35149;51.196;6.204;2023-03-05T03:08:39;6.68;;;2.20;;
49131;SDS011;35149;51.196;6.204;2023-03-05T03:11:10;8.25;;;2.58;;
49131;SDS011;35149;51.196;6.204;2023-03-05T03:13:38;5.82;;;2.05;;
49131;SDS011;35149;51.196;6.204;2023-03-05T03:16:09;4.05;;;1.90;;
49131;SDS011;35149;51.196;6.204;2023-03-05T03:18:43;4.13;;;1.88;;
49131;SDS011;35149;51.196;6.204;2023-03-05T03:21:17;4.45;;;2.15;;
49131;SDS011;35149;51.196;6.204;2023-03-05T03:23:53;7.22;;;2.00;;
49131;SDS011;35149;51.196;6.204;2023-03-05T03:26:20;6.50;;;1.65;;
49131;SDS011;35149;51.196;6.204;2023-03-05T03:28:49;5.78;;;2.33;;
49131;SDS011;35149;51.196;6.204;2023-03-05T03:31:19;6.40;;;1.90;;
49131;SDS011;35149;51.196;6.204;2023-03-05T03:33:46;5.63;;;1.90;;
49131;SDS011;35149;51.196;6.204;2023-03-05T03:36:12;7.43;;;2.10;;
49131;SDS011;35149;51.196;6.204;2023-03-05T03:38:44;7.40;;;2.00;;
49131;SDS011;35149;51.196;6.204;2023-03-05T03:41:13;6.65;;;2.00;;
49131;SDS011;35149;51.196;6.204;2023-03-05T03:43:47;3.85;;;1.83;;
49131;SDS011;35149;51.196;6.204;2023-03-05T03:46:16;3.80;;;1.52;;
49131;SDS011;35149;51.196;6.204;2023-03-05T03:48:50;4.47;;;1.80;;
49131;SDS011;35149;51.196;6.204;2023-03-05T03:51:19;9.35;;;1.80;;
49131;SDS011;35149;51.196;6.204;2023-03-05T03:53:46;6.45;;;1.45;;
49131;SDS011;35149;51.196;6.204;2023-03-05T03:56:17;7.38;;;2.00;;
49131;SDS011;35149;51.196;6.204;2023-03-05T03:58:45;4.05;;;1.50;;
49131;SDS011;35149;51.196;6.204;2023-03-05T04:01:11;3.88;;;1.55;;
49131;SDS011;35149;51.196;6.204;2023-03-05T04:03:42;5.38;;;1.65;;
49131;SDS011;35149;51.196;6.204;2023-03-05T04:06:12;3.17;;;1.52;;
49131;SDS011;35149;51.196;6.204;2023-03-05T04:08:41;3.67;;;1.55;;
49131;SDS011;35149;51.196;6.204;2023-03-05T04:11:10;5.97;;;1.77;;
49131;SDS011;35149;51.196;6.204;2023-03-05T04:13:38;8.30;;;1.80;;
49131;SDS011;35149;51.196;6.204;2023-03-05T04:16:11;5.00;;;2.38;;
49131;SDS011;35149;51.196;6.204;2023-03-05T04:18:40;4.03;;;2.00;;
49131;SDS011;35149;51.196;6.204;2023-03-05T04:21:07;6.78;;;2.10;;
49131;SDS011;35149;51.196;6.204;2023-03-05T04:23:36;4.65;;;1.85;;
49131;SDS011;35149;51.196;6.204;2023-03-05T04:26:03;7.13;;;2.53;;
49131;SDS011;35149;51.196;6.204;2023-03-05T04:28:29;6.30;;;1.80;;
49131;SDS011;35149;51.196;6.204;2023-03-05T04:31:00;5.63;;;1.73;;
49131;SDS011;35149;51.196;6.204;2023-03-05T04:33:28;1.75;;;1.30;;
49131;SDS011;35149;51.196;6.204;2023-03-05T04:35:58;4.68;;;1.75;;
49131;SDS011;35149;51.196;6.204;2023-03-05T04:38:25;6.47;;;1.48;;
49131;SDS011;35149;51.196;6.204;2023-03-05T04:40:57;2.63;;;1.65;;
49131;SDS011;35149;51.196;6.204;2023-03-05T04:43:24;6.07;;;1.83;;
49131;SDS011;35149;51.196;6.204;2023-03-05T04:45:51;5.20;;;1.85;;
49131;SDS011;35149;51.196;6.204;2023-03-05T04:48:19;4.90;;;1.77;;
49131;SDS011;35149;51.196;6.204;2023-03-05T04:50:50;6.80;;;2.30;;
49131;SDS011;35149;51.196;6.204;2023-03-05T04:53:19;5.35;;;2.10;;
49131;SDS011;35149;51.196;6.204;2023-03-05T04:55:52;8.05;;;2.42;;
49131;SDS011;35149;51.196;6.204;2023-03-05T04:58:19;5.25;;;2.45;;
49131;SDS011;35149;51.196;6.204;2023-03-05T05:00:51;7.28;;;2.65;;
49131;SDS011;35149;51.196;6.204;2023-03-05T05:03:25;4.60;;;2.58;;
49131;SDS011;35149;51.196;6.204;2023-03-05T05:06:01;8.15;;;2.55;;
49131;SDS011;35149;51.196;6.204;2023-03-05T05:08:30;4.38;;;2.30;;
49131;SDS011;35149;51.196;6.204;2023-03-05T05:11:06;7.40;;;3.00;;
49131;SDS011;35149;51.196;6.204;2023-03-05T05:13:33;4.68;;;2.35;;
49131;SDS011;35149;51.196;6.204;2023-03-05T05:16:04;5.68;;;2.30;;
49131;SDS011;35149;51.196;6.204;2023-03-05T05:18:34;8.23;;;2.47;;
49131;SDS011;35149;51.196;6.204;2023-03-05T05:21:01;9.35;;;3.17;;
49131;SDS011;35149;51.196;6.204;2023-03-05T05:23:31;7.45;;;2.80;;
49131;SDS011;35149;51.196;6.204;2023-03-05T05:25:58;7.00;;;2.58;;
49131;SDS011;35149;51.196;6.204;2023-03-05T05:28:26;6.18;;;2.08;;
49131;SDS011;35149;51.196;6.204;2023-03-05T05:30:56;4.78;;;2.50;;
49131;SDS011;35149;51.196;6.204;2023-03-05T05:33:25;5.95;;;2.42;;
49131;SDS011;35149;51.196;6.204;2023-03-05T05:35:53;6.20;;;2.15;;
49131;SDS011;35149;51.196;6.204;2023-03-05T05:38:20;16.80;;;2.85;;
49131;SDS011;35149;51.196;6.204;2023-03-05T05:40:46;6.72;;;2.28;;
49131;SDS011;35149;51.196;6.204;2023-03-05T05:43:18;3.23;;;1.77;;
49131;SDS011;35149;51.196;6.204;2023-03-05T05:45:52;6.53;;;2.53;;
49131;SDS011;35149;51.196;6.204;2023-03-05T05:48:21;4.10;;;2.70;;
49131;SDS011;35149;51.196;6.204;2023-03-05T05:50:47;7.05;;;2.65;;
49131;SDS011;35149;51.196;6.204;2023-03-05T05:53:16;4.75;;;2.45;;
49131;SDS011;35149;51.196;6.204;2023-03-05T05:55:46;5.28;;;2.28;;
49131;SDS011;35149;51.196;6.204;2023-03-05T05:58:13;6.40;;;2.60;;
49131;SDS011;35149;51.196;6.204;2023-03-05T06:00:40;7.47;;;3.30;;
49131;SDS011;35149;51.196;6.204;2023-03-05T06:03:07;7.55;;;3.30;;
49131;SDS011;35149;51.196;6.204;2023-03-05T06:05:41;7.55;;;2.78;;
49131;SDS011;35149;51.196;6.204;2023-03-05T06:08:08;5.53;;;3.03;;
49131;SDS011;35149;51.196;6.204;2023-03-05T06:10:36;7.57;;;3.13;;
49131;SDS011;35149;51.196;6.204;2023-03-05T06:13:07;4.55;;;2.35;;
49131;SDS011;35149;51.196;6.204;2023-03-05T06:15:37;7.05;;;3.25;;
49131;SDS011;35149;51.196;6.204;2023-03-05T06:18:06;9.10;;;3.15;;
49131;SDS011;35149;51.196;6.204;2023-03-05T06:20:34;6.60;;;2.50;;
49131;SDS011;35149;51.196;6.204;2023-03-05T06:23:01;7.60;;;2.83;;
49131;SDS011;35149;51.196;6.204;2023-03-05T06:25:28;4.45;;;2.08;;
49131;SDS011;35149;51.196;6.204;2023-03-05T06:27:54;5.75;;;3.00;;
49131;SDS011;35149;51.196;6.204;2023-03-05T06:30:21;8.05;;;3.42;;
49131;SDS011;35149;51.196;6.204;2023-03-05T06:35:28;9.38;;;2.85;;
49131;SDS011;35149;51.196;6.204;2023-03-05T06:37:58;4.07;;;3.00;;
49131;SDS011;35149;51.196;6.204;2023-03-05T06:40:26;7.90;;;2.67;;
49131;SDS011;35149;51.196;6.204;2023-03-05T06:43:00;5.47;;;3.13;;
49131;SDS011;35149;51.196;6.204;2023-03-05T06:45:38;5.13;;;2.75;;
49131;SDS011;35149;51.196;6.204;2023-03-05T06:48:12;6.15;;;3.15;;
49131;SDS011;35149;51.196;6.204;2023-03-05T06:50:40;6.03;;;3.05;;
49131;SDS011;35149;51.196;6.204;2023-03-05T06:53:07;7.13;;;3.10;;
49131;SDS011;35149;51.196;6.204;2023-03-05T06:55:35;7.15;;;3.28;;
49131;SDS011;35149;51.196;6.204;2023-03-05T06:58:05;10.63;;;3.38;;
49131;SDS011;35149;51.196;6.204;2023-03-05T07:00:34;9.82;;;4.28;;
49131;SDS011;35149;51.196;6.204;2023-03-05T07:03:01;6.97;;;3.80;;
49131;SDS011;35149;51.196;6.204;2023-03-05T07:05:27;7.47;;;3.40;;
49131;SDS011;35149;51.196;6.204;2023-03-05T07:07:59;8.48;;;3.70;;
49131;SDS011;35149;51.196;6.204;2023-03-05T07:10:26;8.07;;;3.90;;
49131;SDS011;35149;51.196;6.204;2023-03-05T07:12:53;8.85;;;4.18;;
49131;SDS011;35149;51.196;6.204;2023-03-05T07:15:20;10.15;;;4.97;;
49131;SDS011;35149;51.196;6.204;2023-03-05T07:17:49;6.65;;;3.08;;
49131;SDS011;35149;51.196;6.204;2023-03-05T07:20:18;5.25;;;3.78;;
49131;SDS011;35149;51.196;6.204;2023-03-05T07:22:47;6.72;;;4.20;;
49131;SDS011;35149;51.196;6.204;2023-03-05T07:25:17;9.70;;;4.10;;
49131;SDS011;35149;51.196;6.204;2023-03-05T07:27:49;8.55;;;3.85;;
49131;SDS011;35149;51.196;6.204;2023-03-05T07:30:20;6.93;;;3.65;;
49131;SDS011;35149;51.196;6.204;2023-03-05T07:32:50;9.50;;;3.75;;
49131;SDS011;35149;51.196;6.204;2023-03-05T07:35:17;8.30;;;3.47;;
49131;SDS011;35149;51.196;6.204;2023-03-05T07:37:44;6.53;;;3.38;;
49131;SDS011;35149;51.196;6.204;2023-03-05T07:40:10;6.82;;;3.65;;
49131;SDS011;35149;51.196;6.204;2023-03-05T07:42:37;9.48;;;3.85;;
49131;SDS011;35149;51.196;6.204;2023-03-05T07:45:13;7.95;;;4.45;;
49131;SDS011;35149;51.196;6.204;2023-03-05T07:47:39;9.00;;;3.70;;
49131;SDS011;35149;51.196;6.204;2023-03-05T07:50:06;4.63;;;4.13;;
49131;SDS011;35149;51.196;6.204;2023-03-05T07:52:36;8.77;;;4.72;;
49131;SDS011;35149;51.196;6.204;2023-03-05T07:55:02;11.18;;;4.88;;
49131;SDS011;35149;51.196;6.204;2023-03-05T07:57:29;7.93;;;4.60;;
49131;SDS011;35149;51.196;6.204;2023-03-05T07:59:56;6.47;;;4.30;;
49131;SDS011;35149;51.196;6.204;2023-03-05T08:02:22;7.20;;;3.83;;
49131;SDS011;35149;51.196;6.204;2023-03-05T08:04:49;8.82;;;4.03;;
49131;SDS011;35149;51.196;6.204;2023-03-05T08:07:16;11.60;;;4.93;;
49131;SDS011;35149;51.196;6.204;2023-03-05T08:09:42;7.97;;;4.45;;
49131;SDS011;35149;51.196;6.204;2023-03-05T08:12:09;9.40;;;4.32;;
49131;SDS011;35149;51.196;6.204;2023-03-05T08:14:36;9.00;;;5.40;;
49131;SDS011;35149;51.196;6.204;2023-03-05T08:17:03;8.80;;;4.13;;
49131;SDS011;35149;51.196;6.204;2023-03-05T08:19:31;7.07;;;3.75;;
49131;SDS011;35149;51.196;6.204;2023-03-05T08:21:58;8.57;;;4.68;;
49131;SDS011;35149;51.196;6.204;2023-03-05T08:24:25;7.82;;;4.38;;
49131;SDS011;35149;51.196;6.204;2023-03-05T08:26:55;6.90;;;4.22;;
49131;SDS011;35149;51.196;6.204;2023-03-05T08:29:23;7.13;;;4.53;;
49131;SDS011;35149;51.196;6.204;2023-03-05T08:31:50;10.52;;;4.25;;
49131;SDS011;35149;51.196;6.204;2023-03-05T08:34:21;10.77;;;4.70;;
49131;SDS011;35149;51.196;6.204;2023-03-05T08:36:48;8.27;;;5.05;;
49131;SDS011;35149;51.196;6.204;2023-03-05T08:39:15;5.85;;;4.18;;
49131;SDS011;35149;51.196;6.204;2023-03-05T08:41:42;7.30;;;5.00;;
49131;SDS011;35149;51.196;6.204;2023-03-05T08:44:10;8.02;;;5.20;;
49131;SDS011;35149;51.196;6.204;2023-03-05T08:46:39;7.82;;;5.03;;
49131;SDS011;35149;51.196;6.204;2023-03-05T08:49:06;8.02;;;4.40;;
49131;SDS011;35149;51.196;6.204;2023-03-05T08:51:33;6.28;;;4.45;;
49131;SDS011;35149;51.196;6.204;2023-03-05T08:54:00;8.07;;;6.13;;
49131;SDS011;35149;51.196;6.204;2023-03-05T08:56:32;7.97;;;6.00;;
49131;SDS011;35149;51.196;6.204;2023-03-05T08:58:59;9.07;;;6.43;;
49131;SDS011;35149;51.196;6.204;2023-03-05T09:01:26;9.13;;;6.22;;
49131;SDS011;35149;51.196;6.204;2023-03-05T09:03:53;9.73;;;6.60;;
49131;SDS011;35149;51.196;6.204;2023-03-05T09:06:20;7.25;;;5.97;;
49131;SDS011;35149;51.196;6.204;2023-03-05T09:08:47;7.28;;;6.40;;
49131;SDS011;35149;51.196;6.204;2023-03-05T09:11:13;7.63;;;5.53;;
49131;SDS011;35149;51.196;6.204;2023-03-05T09:13:40;8.45;;;6.75;;
49131;SDS011;35149;51.196;6.204;2023-03-05T09:16:07;8.57;;;6.25;;
49131;SDS011;35149;51.196;6.204;2023-03-05T09:18:38;6.85;;;6.20;;
49131;SDS011;35149;51.196;6.204;2023-03-05T09:21:06;9.00;;;5.95;;
49131;SDS011;35149;51.196;6.204;2023-03-05T09:23:34;7.47;;;5.40;;
49131;SDS011;35149;51.196;6.204;2023-03-05T09:26:03;7.32;;;5.63;;
49131;SDS011;35149;51.196;6.204;2023-03-05T09:28:30;7.63;;;5.47;;
49131;SDS011;35149;51.196;6.204;2023-03-05T09:31:00;8.43;;;5.57;;
49131;SDS011;35149;51.196;6.204;2023-03-05T09:33:29;6.47;;;5.67;;
49131;SDS011;35149;51.196;6.204;2023-03-05T09:35:57;9.32;;;5.85;;
49131;SDS011;35149;51.196;6.204;2023-03-05T09:38:25;6.82;;;4.82;;
49131;SDS011;35149;51.196;6.204;2023-03-05T09:40:55;6.10;;;4.88;;
49131;SDS011;35149;51.196;6.204;2023-03-05T09:51:49;6.70;;;5.03;;
49131;SDS011;35149;51.196;6.204;2023-03-05T09:54:23;5.30;;;4.78;;
49131;SDS011;35149;51.196;6.204;2023-03-05T09:57:01;8.27;;;5.20;;
49131;SDS011;35149;51.196;6.204;2023-03-05T09:59:32;5.70;;;4.50;;
49131;SDS011;35149;51.196;6.204;2023-03-05T10:02:12;5.40;;;4.03;;
49131;SDS011;35149;51.196;6.204;2023-03-05T10:04:54;5.65;;;4.20;;
49131;SDS011;35149;51.196;6.204;2023-03-05T10:07:32;7.53;;;4.30;;
49131;SDS011;35149;51.196;6.204;2023-03-05T10:12:38;6.78;;;4.43;;
49131;SDS011;35149;51.196;6.204;2023-03-05T10:15:14;8.48;;;4.88;;
49131;SDS011;35149;51.196;6.204;2023-03-05T10:18:16;5.88;;;3.92;;
49131;SDS011;35149;51.196;6.204;2023-03-05T10:31:35;9.73;;;4.03;;
49131;SDS011;35149;51.196;6.204;2023-03-05T10:40:06;3.95;;;3.33;;
49131;SDS011;35149;51.196;6.204;2023-03-05T10:43:00;4.97;;;3.30;;
49131;SDS011;35149;51.196;6.204;2023-03-05T10:45:48;4.22;;;3.40;;
49131;SDS011;35149;51.196;6.204;2023-03-05T10:51:37;4.15;;;3.50;;
49131;SDS011;35149;51.196;6.204;2023-03-05T10:54:32;4.10;;;3.70;;
49131;SDS011;35149;51.196;6.204;2023-03-05T10:57:01;3.35;;;3.05;;
49131;SDS011;35149;51.196;6.204;2023-03-05T11:02:18;4.10;;;3.05;;
49131;SDS011;35149;51.196;6.204;2023-03-05T11:04:46;6.18;;;3.45;;
49131;SDS011;35149;51.196;6.204;2023-03-05T11:09:44;5.82;;;4.28;;
49131;SDS011;35149;51.196;6.204;2023-03-05T11:12:46;5.18;;;4.10;;
49131;SDS011;35149;51.196;6.204;2023-03-05T11:23:11;3.83;;;3.00;;
49131;SDS011;35149;51.196;6.204;2023-03-05T11:25:53;4.00;;;2.92;;
49131;SDS011;35149;51.196;6.204;2023-03-05T11:28:21;3.42;;;2.38;;
49131;SDS011;35149;51.196;6.204;2023-03-05T11:36:33;5.13;;;3.00;;
49131;SDS011;35149;51.196;6.204;2023-03-05T11:39:13;3.70;;;2.42;;
49131;SDS011;35149;51.196;6.204;2023-03-05T11:42:27;2.67;;;2.45;;
49131;SDS011;35149;51.196;6.204;2023-03-05T11:50:03;1.95;;;1.85;;
49131;SDS011;35149;51.196;6.204;2023-03-05T11:52:59;2.50;;;2.30;;
49131;SDS011;35149;51.196;6.204;2023-03-05T11:55:47;2.97;;;2.38;;
49131;SDS011;35149;51.196;6.204;2023-03-05T12:00:58;1.60;;;1.50;;
49131;SDS011;35149;51.196;6.204;2023-03-05T12:03:28;4.45;;;2.28;;
49131;SDS011;35149;51.196;6.204;2023-03-05T12:08:58;2.67;;;2.17;;
49131;SDS011;35149;51.196;6.204;2023-03-05T12:11:29;5.57;;;1.88;;
49131;SDS011;35149;51.196;6.204;2023-03-05T12:19:21;2.42;;;2.22;;
49131;SDS011;35149;51.196;6.204;2023-03-05T12:22:22;2.20;;;1.60;;
49131;SDS011;35149;51.196;6.204;2023-03-05T12:24:51;2.00;;;1.60;;
49131;SDS011;35149;51.196;6.204;2023-03-05T12:27:31;3.20;;;1.80;;
49131;SDS011;35149;51.196;6.204;2023-03-05T12:30:00;2.75;;;1.65;;
49131;SDS011;35149;51.196;6.204;2023-03-05T12:35:01;6.18;;;3.17;;
49131;SDS011;35149;51.196;6.204;2023-03-05T12:39:57;4.05;;;3.55;;
49131;SDS011;35149;51.196;6.204;2023-03-05T12:47:38;3.72;;;3.28;;
49131;SDS011;35149;51.196;6.204;2023-03-05T12:55:36;3.40;;;2.75;;
49131;SDS011;35149;51.196;6.204;2023-03-05T13:01:41;2.40;;;2.15;;
49131;SDS011;35149;51.196;6.204;2023-03-05T13:03:42;3.35;;;2.30;;
49131;SDS011;35149;51.196;6.204;2023-03-05T13:06:46;4.13;;;2.63;;
49131;SDS011;35149;51.196;6.204;2023-03-05T13:09:07;3.10;;;2.70;;
49131;SDS011;35149;51.196;6.204;2023-03-05T13:11:51;3.72;;;2.75;;
49131;SDS011;35149;51.196;6.204;2023-03-05T13:14:28;4.55;;;3.03;;
49131;SDS011;35149;51.196;6.204;2023-03-05T13:16:55;6.05;;;2.58;;
49131;SDS011;35149;51.196;6.204;2023-03-05T13:19:22;3.45;;;2.38;;
49131;SDS011;35149;51.196;6.204;2023-03-05T13:21:56;4.07;;;2.00;;
49131;SDS011;35149;51.196;6.204;2023-03-05T13:24:27;4.03;;;2.35;;
49131;SDS011;35149;51.196;6.204;2023-03-05T13:26:55;3.80;;;2.25;;
49131;SDS011;35149;51.196;6.204;2023-03-05T13:29:24;2.60;;;2.30;;
49131;SDS011;35149;51.196;6.204;2023-03-05T13:31:59;3.40;;;2.70;;
49131;SDS011;35149;51.196;6.204;2023-03-05T13:39:53;3.50;;;2.78;;
49131;SDS011;35149;51.196;6.204;2023-03-05T13:42:23;2.92;;;2.42;;
49131;SDS011;35149;51.196;6.204;2023-03-05T13:44:57;4.07;;;2.90;;
49131;SDS011;35149;51.196;6.204;2023-03-05T13:47:26;4.20;;;3.35;;
49131;SDS011;35149;51.196;6.204;2023-03-05T13:49:55;5.38;;;3.33;;
49131;SDS011;35149;51.196;6.204;2023-03-05T13:52:26;5.32;;;4.00;;
49131;SDS011;35149;51.196;6.204;2023-03-05T13:54:55;5.88;;;3.33;;
49131;SDS011;35149;51.196;6.204;2023-03-05T13:57:33;4.88;;;3.55;;
49131;SDS011;35149;51.196;6.204;2023-03-05T14:00:03;5.82;;;5.22;;
49131;SDS011;35149;51.196;6.204;2023-03-05T14:02:49;5.90;;;4.47;;
49131;SDS011;35149;51.196;6.204;2023-03-05T14:05:17;7.10;;;5.25;;
49131;SDS011;35149;51.196;6.204;2023-03-05T14:07:49;11.85;;;6.10;;
49131;SDS011;35149;51.196;6.204;2023-03-05T14:12:59;5.25;;;4.60;;
49131;SDS011;35149;51.196;6.204;2023-03-05T14:15:31;4.80;;;4.20;;
49131;SDS011;35149;51.196;6.204;2023-03-05T14:20:59;4.60;;;3.65;;
49131;SDS011;35149;51.196;6.204;2023-03-05T14:23:34;12.85;;;9.65;;
49131;SDS011;35149;51.196;6.204;2023-03-05T14:28:59;4.80;;;3.45;;
49131;SDS011;35149;51.196;6.204;2023-03-05T14:31:43;4.10;;;2.67;;
49131;SDS011;35149;51.196;6.204;2023-03-05T14:34:12;2.72;;;2.17;;
49131;SDS011;35149;51.196;6.204;2023-03-05T14:36:53;4.00;;;2.55;;
49131;SDS011;35149;51.196;6.204;2023-03-05T14:39:26;2.70;;;2.50;;
49131;SDS011;35149;51.196;6.204;2023-03-05T14:44:46;3.10;;;2.50;;
49131;SDS011;35149;51.196;6.204;2023-03-05T14:47:13;3.70;;;3.08;;
49131;SDS011;35149;51.196;6.204;2023-03-05T14:49:48;4.35;;;3.95;;
49131;SDS011;35149;51.196;6.204;2023-03-05T14:52:16;5.78;;;3.60;;
49131;SDS011;35149;51.196;6.204;2023-03-05T14:54:47;4.93;;;3.38;;
49131;SDS011;35149;51.196;6.204;2023-03-05T14:57:21;4.13;;;3.75;;
49131;SDS011;35149;51.196;6.204;2023-03-05T14:59:50;6.10;;;4.28;;
49131;SDS011;35149;51.196;6.204;2023-03-05T15:02:22;5.55;;;3.00;;
49131;SDS011;35149;51.196;6.204;2023-03-05T15:04:56;4.55;;;4.13;;
49131;SDS011;35149;51.196;6.204;2023-03-05T15:07:28;5.40;;;4.00;;
49131;SDS011;35149;51.196;6.204;2023-03-05T15:09:56;4.50;;;3.95;;
49131;SDS011;35149;51.196;6.204;2023-03-05T15:12:24;4.78;;;4.00;;
49131;SDS011;35149;51.196;6.204;2023-03-05T15:14:52;3.60;;;3.30;;
49131;SDS011;35149;51.196;6.204;2023-03-05T15:17:32;3.60;;;3.30;;
49131;SDS011;35149;51.196;6.204;2023-03-05T15:20:13;3.83;;;3.45;;
49131;SDS011;35149;51.196;6.204;2023-03-05T15:22:42;4.07;;;3.67;;
49131;SDS011;35149;51.196;6.204;2023-03-05T15:25:17;3.95;;;3.63;;
49131;SDS011;35149;51.196;6.204;2023-03-05T15:27:45;5.05;;;3.80;;
49131;SDS011;35149;51.196;6.204;2023-03-05T15:33:01;5.35;;;4.80;;
49131;SDS011;35149;51.196;6.204;2023-03-05T15:35:29;5.07;;;4.57;;
49131;SDS011;35149;51.196;6.204;2023-03-05T15:37:56;9.18;;;5.68;;
49131;SDS011;35149;51.196;6.204;2023-03-05T15:40:35;10.90;;;7.05;;
49131;SDS011;35149;51.196;6.204;2023-03-05T15:43:02;8.45;;;6.43;;
49131;SDS011;35149;51.196;6.204;2023-03-05T15:45:29;10.10;;;7.80;;
49131;SDS011;35149;51.196;6.204;2023-03-05T15:47:58;9.68;;;7.55;;
49131;SDS011;35149;51.196;6.204;2023-03-05T15:50:25;9.25;;;6.45;;
49131;SDS011;35149;51.196;6.204;2023-03-05T15:52:55;10.10;;;6.90;;
49131;SDS011;35149;51.196;6.204;2023-03-05T15:55:25;7.53;;;6.15;;
49131;SDS011;35149;51.196;6.204;2023-03-05T15:57:53;7.80;;;6.05;;
49131;SDS011;35149;51.196;6.204;2023-03-05T16:00:25;6.25;;;5.65;;
49131;SDS011;35149;51.196;6.204;2023-03-05T16:02:55;6.55;;;5.40;;
49131;SDS011;35149;51.196;6.204;2023-03-05T16:05:36;5.82;;;5.22;;
49131;SDS011;35149;51.196;6.204;2023-03-05T16:08:04;5.88;;;4.80;;
49131;SDS011;35149;51.196;6.204;2023-03-05T16:10:34;4.88;;;4.35;;
49131;SDS011;35149;51.196;6.204;2023-03-05T16:13:08;4.43;;;3.95;;
49131;SDS011;35149;51.196;6.204;2023-03-05T16:15:37;5.15;;;4.63;;
49131;SDS011;35149;51.196;6.204;2023-03-05T16:18:06;6.85;;;6.28;;
49131;SDS011;35149;51.196;6.204;2023-03-05T16:20:43;9.13;;;6.90;;
49131;SDS011;35149;51.196;6.204;2023-03-05T16:23:10;5.32;;;4.82;;
49131;SDS011;35149;51.196;6.204;2023-03-05T16:25:38;4.25;;;3.85;;
49131;SDS011;35149;51.196;6.204;2023-03-05T16:28:06;5.35;;;4.80;;
49131;SDS011;35149;51.196;6.204;2023-03-05T16:30:39;5.72;;;3.95;;
49131;SDS011;35149;51.196;6.204;2023-03-05T16:33:05;4.07;;;3.42;;
49131;SDS011;35149;51.196;6.204;2023-03-05T16:35:32;4.88;;;3.75;;
49131;SDS011;35149;51.196;6.204;2023-03-05T16:38:01;4.65;;;3.58;;
49131;SDS011;35149;51.196;6.204;2023-03-05T16:40:36;6.25;;;4.95;;
49131;SDS011;35149;51.196;6.204;2023-03-05T16:43:23;5.22;;;4.25;;
49131;SDS011;35149;51.196;6.204;2023-03-05T16:45:52;4.80;;;3.13;;
49131;SDS011;35149;51.196;6.204;2023-03-05T16:48:19;4.57;;;2.50;;
49131;SDS011;35149;51.196;6.204;2023-03-05T16:50:47;3.08;;;2.75;;
49131;SDS011;35149;51.196;6.204;2023-03-05T16:53:13;2.90;;;2.70;;
49131;SDS011;35149;51.196;6.204;2023-03-05T16:55:45;3.08;;;2.80;;
49131;SDS011;35149;51.196;6.204;2023-03-05T16:58:11;3.53;;;2.78;;
49131;SDS011;35149;51.196;6.204;2023-03-05T17:00:44;3.25;;;1.95;;
49131;SDS011;35149;51.196;6.204;2023-03-05T17:03:10;2.20;;;1.83;;
49131;SDS011;35149;51.196;6.204;2023-03-05T17:05:37;2.95;;;2.38;;